Time;durP1;ratioP1;P1;durP2;ratioP2;P2;SDS_P1;SDS_P2;PMS_P1;PMS_P2;Temp;Humidity;BMP_temperature;BMP_pressure;BME280_temperature;BME280_humidity;BME280_pressure;Samples;Min_cycle;Max_cycle;Signal;HPM_P1;HPM_P2
2022/04/30 00:00:40;;;;;;;7.30;5.60;;;10.70;55.80;;;;;;5053318;28;20193;-62
2022/04/30 00:03:09;;;;;;;5.70;5.10;;;10.60;55.50;;;;;;5054372;28;20704;-62
2022/04/30 00:05:36;;;;;;;7.10;5.82;;;10.50;55.60;;;;;;5053389;28;20191;-62
2022/04/30 00:08:05;;;;;;;7.95;6.55;;;10.50;56.20;;;;;;5053972;28;20237;-62
2022/04/30 00:10:37;;;;;;;7.38;5.90;;;10.50;56.60;;;;;;5053384;28;20256;-62
2022/04/30 00:13:05;;;;;;;7.10;5.70;;;10.50;57.20;;;;;;5053962;28;20683;-62
2022/04/30 00:15:34;;;;;;;9.35;6.07;;;10.50;56.60;;;;;;5053107;28;20684;-62
2022/04/30 00:18:01;;;;;;;8.15;7.10;;;10.40;56.60;;;;;;5053933;28;20202;-62
2022/04/30 00:20:28;;;;;;;9.50;6.13;;;10.40;56.60;;;;;;5053180;28;20257;-62
2022/04/30 00:22:55;;;;;;;9.00;7.00;;;10.40;56.80;;;;;;5053857;28;20240;-62
2022/04/30 00:25:23;;;;;;;6.85;5.68;;;10.30;56.90;;;;;;5053146;28;20182;-63
2022/04/30 00:27:51;;;;;;;8.85;6.53;;;10.30;57.00;;;;;;5053691;28;20196;-63
2022/04/30 00:30:18;;;;;;;7.32;5.88;;;10.30;57.00;;;;;;5052885;28;20186;-62
2022/04/30 00:32:46;;;;;;;5.88;5.00;;;10.30;57.00;;;;;;5053387;28;20285;-62
2022/04/30 00:35:14;;;;;;;7.47;5.45;;;10.30;57.20;;;;;;5052872;28;20297;-63
2022/04/30 00:37:41;;;;;;;7.55;6.13;;;10.20;57.00;;;;;;5053918;28;20196;-64
2022/04/30 00:40:09;;;;;;;8.45;5.85;;;10.30;57.50;;;;;;5052768;28;20174;-62
2022/04/30 00:42:38;;;;;;;7.03;5.40;;;10.20;57.60;;;;;;5053635;28;20218;-62
2022/04/30 00:45:05;;;;;;;6.10;5.50;;;10.10;57.60;;;;;;5052672;28;20226;-63
2022/04/30 00:47:32;;;;;;;6.82;5.78;;;10.00;57.90;;;;;;5053277;28;20237;-62
2022/04/30 00:49:59;;;;;;;7.22;5.70;;;10.00;58.00;;;;;;5052588;28;20182;-62
2022/04/30 00:52:27;;;;;;;10.18;7.38;;;9.90;59.30;;;;;;5053264;28;20244;-62
2022/04/30 00:55:00;;;;;;;9.77;6.68;;;9.80;59.40;;;;;;5052461;28;20189;-62
2022/04/30 00:57:31;;;;;;;8.25;6.60;;;9.80;59.50;;;;;;5053214;28;20194;-65
2022/04/30 01:00:02;;;;;;;9.60;7.80;;;9.80;59.70;;;;;;5052473;28;20269;-63
2022/04/30 01:02:30;;;;;;;6.97;6.15;;;9.80;59.50;;;;;;5053474;28;20245;-62
2022/04/30 01:04:58;;;;;;;7.53;6.38;;;9.80;59.50;;;;;;5052494;28;20269;-63
2022/04/30 01:07:26;;;;;;;9.65;5.70;;;9.70;59.80;;;;;;5053202;28;20190;-62
2022/04/30 01:09:54;;;;;;;7.55;5.80;;;9.70;59.70;;;;;;5051969;28;20186;-62
2022/04/30 01:12:23;;;;;;;7.22;6.20;;;9.70;59.70;;;;;;5053217;28;20281;-62
2022/04/30 01:14:52;;;;;;;7.05;5.90;;;9.60;59.90;;;;;;5052783;28;20261;-62
2022/04/30 01:17:21;;;;;;;8.02;6.55;;;9.60;60.30;;;;;;5052983;28;20193;-62
2022/04/30 01:19:48;;;;;;;7.35;6.38;;;9.50;60.10;;;;;;5052539;28;20275;-62
2022/04/30 01:22:27;;;;;;;7.03;6.13;;;9.60;60.80;;;;;;5053093;28;20675;-62
2022/04/30 01:24:58;;;;;;;8.07;6.63;;;9.60;60.60;;;;;;5052414;28;20189;-63
2022/04/30 01:27:26;;;;;;;6.75;5.38;;;9.60;61.10;;;;;;5053193;28;20225;-62
2022/04/30 01:29:54;;;;;;;12.63;6.60;;;9.60;61.20;;;;;;5052197;28;20186;-63
2022/04/30 01:37:58;;;;;;;7.95;6.18;;;9.50;60.60;;;;;;5052716;28;20653;-62
2022/04/30 01:40:26;;;;;;;7.03;6.32;;;9.40;61.00;;;;;;5051815;28;20532;-62
2022/04/30 01:42:58;;;;;;;6.05;5.45;;;9.30;61.80;;;;;;5052896;28;20205;-62
2022/04/30 01:45:25;;;;;;;7.78;6.22;;;9.30;61.90;;;;;;5051897;28;20186;-63
2022/04/30 01:47:54;;;;;;;7.15;6.25;;;9.20;62.50;;;;;;5052386;28;20197;-63
2022/04/30 01:50:21;;;;;;;9.10;7.32;;;9.20;62.70;;;;;;5051752;28;20190;-62
2022/04/30 01:52:48;;;;;;;7.20;6.50;;;9.20;62.70;;;;;;5052993;28;20212;-62
2022/04/30 01:55:15;;;;;;;11.63;7.50;;;9.20;63.00;;;;;;5051049;28;20182;-63
2022/04/30 01:57:44;;;;;;;7.70;5.97;;;9.20;63.20;;;;;;5052737;28;20678;-63
2022/04/30 02:00:14;;;;;;;8.70;6.90;;;9.30;63.30;;;;;;5052046;28;20205;-63
2022/04/30 02:02:44;;;;;;;10.68;6.80;;;9.30;63.00;;;;;;5051097;28;20257;-62
2022/04/30 02:05:13;;;;;;;7.13;6.40;;;9.20;63.60;;;;;;5052515;28;20182;-62
2022/04/30 02:07:49;;;;;;;10.80;7.15;;;9.20;62.70;;;;;;5051855;28;20198;-63
2022/04/30 02:10:18;;;;;;;12.23;7.93;;;9.10;62.60;;;;;;5052812;28;20194;-63
2022/04/30 02:12:46;;;;;;;13.48;6.93;;;9.10;62.60;;;;;;5050782;28;20221;-63
2022/04/30 02:15:15;;;;;;;8.25;6.40;;;9.10;62.70;;;;;;5052560;28;20297;-63
2022/04/30 02:17:42;;;;;;;7.57;6.13;;;9.10;62.80;;;;;;5051820;28;20183;-63
2022/04/30 02:20:22;;;;;;;7.88;6.18;;;9.10;62.40;;;;;;5052302;28;20286;-63
2022/04/30 02:22:50;;;;;;;7.28;6.55;;;9.10;62.50;;;;;;5051470;28;20209;-62
2022/04/30 02:25:19;;;;;;;7.65;6.00;;;8.90;63.20;;;;;;5052417;28;20726;-63
2022/04/30 02:27:49;;;;;;;7.15;5.93;;;8.90;63.70;;;;;;5051612;28;20197;-62
2022/04/30 02:30:18;;;;;;;8.20;5.93;;;8.90;64.30;;;;;;5052788;28;20216;-63
2022/04/30 02:32:47;;;;;;;14.55;11.43;;;9.00;64.40;;;;;;5051552;28;20190;-63
2022/04/30 02:35:15;;;;;;;9.98;6.95;;;9.10;64.20;;;;;;5052385;28;20197;-63
2022/04/30 02:37:44;;;;;;;12.45;8.45;;;9.00;63.20;;;;;;5051541;28;20190;-63
2022/04/30 02:40:13;;;;;;;20.40;11.38;;;8.90;63.50;;;;;;5052395;28;20202;-62
2022/04/30 02:42:41;;;;;;;20.70;13.20;;;8.90;63.50;;;;;;5050160;28;20286;-64
2022/04/30 02:45:10;;;;;;;13.10;9.45;;;8.90;63.50;;;;;;5052140;28;20282;-64
2022/04/30 02:47:39;;;;;;;18.98;11.68;;;8.90;63.30;;;;;;5051298;28;20214;-62
2022/04/30 02:50:08;;;;;;;12.27;8.88;;;8.80;64.20;;;;;;5050989;28;20186;-64
2022/04/30 02:52:35;;;;;;;11.48;8.90;;;8.80;64.10;;;;;;5047769;28;20710;-62
2022/04/30 02:55:03;;;;;;;13.13;9.02;;;8.80;64.30;;;;;;5051389;28;20190;-62
2022/04/30 02:59:53;;;;;;;11.00;8.07;;;8.80;64.70;;;;;;5052278;28;20313;-62
2022/04/30 03:00:28;;;;;;;10.07;8.77;;;8.80;65.00;;;;;;5031856;28;20193;-63
2022/04/30 03:02:55;;;;;;;9.38;8.02;;;8.80;65.30;;;;;;5033750;28;20195;-62
2022/04/30 03:05:23;;;;;;;8.32;6.85;;;8.90;65.50;;;;;;5052066;28;20190;-62
2022/04/30 03:07:51;;;;;;;10.25;7.90;;;8.90;64.60;;;;;;5050846;28;20197;-62
2022/04/30 03:10:18;;;;;;;6.88;5.60;;;8.80;64.30;;;;;;5051871;28;20229;-63
2022/04/30 03:12:45;;;;;;;10.38;8.07;;;8.80;64.70;;;;;;5051200;28;20193;-63
2022/04/30 03:15:12;;;;;;;8.05;6.72;;;8.80;64.90;;;;;;5052107;28;20281;-62
2022/04/30 03:23:09;;;;;;;9.65;7.05;;;8.80;65.40;;;;;;5052027;28;20271;-62
2022/04/30 03:25:36;;;;;;;7.90;6.95;;;8.70;66.00;;;;;;5054704;28;20189;-62
2022/04/30 03:28:03;;;;;;;10.32;9.23;;;8.70;66.40;;;;;;5055317;28;20241;-62
2022/04/30 03:30:31;;;;;;;10.52;8.20;;;8.60;66.80;;;;;;5054423;28;20677;-62
2022/04/30 03:32:59;;;;;;;11.77;8.90;;;8.60;66.70;;;;;;5055037;28;20190;-63
2022/04/30 03:35:26;;;;;;;10.88;7.97;;;8.60;66.70;;;;;;5054655;28;20183;-62
2022/04/30 03:37:53;;;;;;;10.80;8.05;;;8.50;67.20;;;;;;5055108;28;20620;-62
2022/04/30 03:40:20;;;;;;;8.43;7.53;;;8.50;67.00;;;;;;5054532;28;20210;-62
2022/04/30 03:42:48;;;;;;;9.27;7.20;;;8.50;67.40;;;;;;5055121;28;20578;-63
2022/04/30 03:45:15;;;;;;;8.95;7.55;;;8.60;67.90;;;;;;5053808;28;20289;-63
2022/04/30 03:47:42;;;;;;;7.15;5.93;;;8.60;67.90;;;;;;5054654;28;20234;-63
2022/04/30 03:50:11;;;;;;;7.68;6.88;;;8.70;68.10;;;;;;5054444;28;20218;-62
2022/04/30 03:52:38;;;;;;;6.90;6.20;;;8.70;67.70;;;;;;5055133;28;20190;-62
2022/04/30 03:55:05;;;;;;;7.00;6.30;;;8.70;67.60;;;;;;5054112;28;20278;-62
2022/04/30 03:57:32;;;;;;;7.88;6.20;;;8.70;67.40;;;;;;5054793;28;20993;-66
2022/04/30 04:00:00;;;;;;;7.28;6.10;;;8.60;68.10;;;;;;5054174;28;20278;-63
2022/04/30 04:02:27;;;;;;;7.50;6.65;;;8.50;68.80;;;;;;5054986;28;20190;-62
2022/04/30 04:04:54;;;;;;;8.82;7.30;;;8.60;69.10;;;;;;5054159;28;20664;-63
2022/04/30 04:07:23;;;;;;;8.30;6.38;;;8.60;69.00;;;;;;5054797;28;20225;-64
2022/04/30 04:09:50;;;;;;;10.73;7.50;;;8.60;69.00;;;;;;5054045;28;20197;-63
2022/04/30 04:12:17;;;;;;;9.57;7.32;;;8.60;69.40;;;;;;5054636;28;20277;-63
2022/04/30 04:17:41;;;;;;;9.95;7.43;;;8.70;69.10;;;;;;5054599;28;20679;-62
2022/04/30 04:20:09;;;;;;;7.68;6.88;;;8.70;68.80;;;;;;5053948;28;20576;-64
2022/04/30 04:22:38;;;;;;;7.30;5.07;;;8.80;68.90;;;;;;5054497;28;20277;-62
2022/04/30 04:27:53;;;;;;;7.05;5.82;;;8.80;69.00;;;;;;5054281;28;20209;-63
2022/04/30 04:30:22;;;;;;;8.43;6.95;;;8.80;69.20;;;;;;5053682;28;20633;-63
2022/04/30 04:32:49;;;;;;;6.93;6.00;;;8.80;70.00;;;;;;5052062;28;20194;-68
2022/04/30 04:35:16;;;;;;;8.57;6.72;;;8.70;70.00;;;;;;5052672;28;20217;-63
2022/04/30 04:37:45;;;;;;;7.88;6.43;;;8.80;70.60;;;;;;5054369;28;20269;-63
2022/04/30 04:40:14;;;;;;;11.25;5.50;;;8.80;70.50;;;;;;5054407;28;20191;-62
2022/04/30 04:42:42;;;;;;;7.43;6.22;;;8.80;70.30;;;;;;5054476;28;20197;-63
2022/04/30 04:45:10;;;;;;;8.38;5.80;;;8.80;70.40;;;;;;5054392;28;20201;-63
2022/04/30 04:47:40;;;;;;;6.55;5.50;;;8.90;70.70;;;;;;5054068;28;20218;-62
2022/04/30 04:50:10;;;;;;;6.50;5.45;;;8.90;71.50;;;;;;5054036;28;20193;-63
2022/04/30 04:52:37;;;;;;;11.23;6.10;;;8.90;70.90;;;;;;5052324;28;20218;-62
2022/04/30 04:55:09;;;;;;;6.43;5.10;;;8.90;71.20;;;;;;5053193;28;20186;-62
2022/04/30 04:57:36;;;;;;;7.75;5.78;;;8.90;71.10;;;;;;5054043;28;20787;-62
2022/04/30 05:00:03;;;;;;;6.22;5.63;;;9.00;71.00;;;;;;5053995;28;20653;-62
2022/04/30 05:02:30;;;;;;;7.65;5.63;;;9.10;71.30;;;;;;5053922;28;20296;-62
2022/04/30 05:04:57;;;;;;;10.45;6.30;;;9.20;71.00;;;;;;5053909;28;20201;-62
2022/04/30 05:07:25;;;;;;;5.40;4.72;;;9.20;70.90;;;;;;5053294;28;20290;-62
2022/04/30 05:09:52;;;;;;;7.47;5.68;;;9.30;71.00;;;;;;5053665;28;20232;-62
2022/04/30 05:12:21;;;;;;;6.95;5.47;;;9.40;71.10;;;;;;5053763;28;20273;-63
2022/04/30 05:14:48;;;;;;;5.78;4.95;;;9.40;71.10;;;;;;5053669;28;20222;-63
2022/04/30 05:17:15;;;;;;;6.75;5.15;;;9.40;71.00;;;;;;5053495;28;20221;-63
2022/04/30 05:19:42;;;;;;;7.63;5.40;;;9.50;71.20;;;;;;5053716;28;20190;-62
2022/04/30 05:22:09;;;;;;;8.43;5.70;;;9.60;71.30;;;;;;5053699;28;20197;-63
2022/04/30 05:24:36;;;;;;;8.82;5.63;;;9.70;71.40;;;;;;5053273;28;20252;-62
2022/04/30 05:27:03;;;;;;;8.27;4.90;;;9.80;71.40;;;;;;5053417;28;20190;-62
2022/04/30 05:29:32;;;;;;;6.05;5.22;;;9.90;71.80;;;;;;5053047;28;20556;-62
2022/04/30 05:31:59;;;;;;;5.65;5.03;;;10.00;70.60;;;;;;5053318;28;20194;-63
2022/04/30 05:34:27;;;;;;;7.78;5.70;;;10.10;70.20;;;;;;5053277;28;20194;-67
2022/04/30 05:36:54;;;;;;;6.78;5.07;;;10.30;70.90;;;;;;5053102;28;20214;-63
2022/04/30 05:39:21;;;;;;;5.80;5.30;;;10.40;70.60;;;;;;5053015;28;20622;-63
2022/04/30 05:41:49;;;;;;;7.13;6.03;;;10.50;70.00;;;;;;5053011;28;20190;-62
2022/04/30 05:44:16;;;;;;;6.18;5.57;;;10.60;69.80;;;;;;5052811;28;20198;-62
2022/04/30 05:46:44;;;;;;;7.13;6.05;;;10.80;70.10;;;;;;5051955;28;20268;-64
2022/04/30 05:49:11;;;;;;;6.60;5.72;;;10.90;70.20;;;;;;5053312;28;20190;-62
2022/04/30 05:51:39;;;;;;;8.68;6.47;;;11.00;71.00;;;;;;5053077;28;20222;-63
2022/04/30 05:54:07;;;;;;;10.43;6.75;;;11.10;70.50;;;;;;5053084;28;20563;-62
2022/04/30 05:56:34;;;;;;;7.32;5.75;;;11.20;70.20;;;;;;5052940;28;20204;-63
2022/04/30 05:59:03;;;;;;;8.82;7.13;;;11.30;70.00;;;;;;5052943;28;20190;-63
2022/04/30 06:01:30;;;;;;;17.33;6.70;;;11.40;69.40;;;;;;5053011;28;20626;-62
2022/04/30 06:03:58;;;;;;;8.82;6.22;;;11.50;68.80;;;;;;5052780;28;20281;-63
2022/04/30 06:06:26;;;;;;;8.40;7.50;;;11.60;68.30;;;;;;5052768;28;20277;-63
2022/04/30 06:08:53;;;;;;;8.05;6.78;;;11.80;69.00;;;;;;5052444;28;20289;-63
2022/04/30 06:11:21;;;;;;;9.07;6.72;;;11.90;69.20;;;;;;5051077;28;20186;-64
2022/04/30 06:13:48;;;;;;;8.25;7.00;;;12.10;69.30;;;;;;5052589;28;20240;-65
2022/04/30 06:16:15;;;;;;;7.93;7.07;;;12.30;69.80;;;;;;5052822;28;20216;-63
2022/04/30 06:18:42;;;;;;;8.95;7.13;;;12.40;69.40;;;;;;5052726;28;20225;-63
2022/04/30 06:21:10;;;;;;;8.90;8.02;;;12.60;69.10;;;;;;5052681;28;20190;-63
2022/04/30 06:23:37;;;;;;;8.55;7.65;;;12.80;69.10;;;;;;5052781;28;20195;-63
2022/04/30 06:26:04;;;;;;;8.70;7.90;;;12.90;68.30;;;;;;5052430;28;20201;-63
2022/04/30 06:28:31;;;;;;;9.90;8.07;;;13.10;67.50;;;;;;5052430;28;20194;-63
2022/04/30 06:31:01;;;;;;;8.88;7.82;;;13.20;67.00;;;;;;5052685;28;20683;-63
2022/04/30 06:33:28;;;;;;;8.30;7.47;;;13.30;65.70;;;;;;5052743;28;20284;-63
2022/04/30 06:35:55;;;;;;;11.20;8.35;;;13.40;65.20;;;;;;5052582;28;20922;-63
2022/04/30 06:38:24;;;;;;;10.90;8.73;;;13.50;65.20;;;;;;5052422;28;20308;-63
2022/04/30 06:40:51;;;;;;;11.93;8.90;;;13.60;65.40;;;;;;5052321;28;20436;-63
2022/04/30 06:43:18;;;;;;;10.47;9.30;;;13.80;65.40;;;;;;5052256;28;20191;-63
2022/04/30 06:45:45;;;;;;;10.93;8.88;;;13.90;65.60;;;;;;5052374;28;20452;-63
2022/04/30 06:48:12;;;;;;;8.47;7.60;;;14.10;64.40;;;;;;5052488;28;20723;-63
2022/04/30 06:50:38;;;;;;;12.67;8.70;;;14.20;64.10;;;;;;5052513;28;20523;-63
2022/04/30 06:58:44;;;;;;;10.37;9.27;;;14.70;60.60;;;;;;5050287;28;20530;-63
2022/04/30 07:01:30;;;;;;;12.20;8.90;;;14.80;59.90;;;;;;5054188;28;20436;-63
2022/04/30 07:04:04;;;;;;;10.23;7.97;;;15.10;58.80;;;;;;5052730;28;21010;-65
2022/04/30 07:06:31;;;;;;;9.20;8.30;;;15.20;58.20;;;;;;5054208;28;21301;-63
2022/04/30 07:08:58;;;;;;;10.60;7.57;;;15.40;58.30;;;;;;5051471;28;20944;-63
2022/04/30 07:11:26;;;;;;;9.80;8.37;;;15.60;58.40;;;;;;5053372;28;20441;-64
2022/04/30 07:13:53;;;;;;;9.97;8.77;;;15.80;58.50;;;;;;5048786;28;20436;-63
2022/04/30 07:16:20;;;;;;;9.53;8.53;;;16.10;57.00;;;;;;5054145;28;20455;-64
2022/04/30 07:18:47;;;;;;;10.20;7.20;;;16.30;56.90;;;;;;5053256;28;20498;-63
2022/04/30 07:21:15;;;;;;;9.73;8.73;;;16.50;57.70;;;;;;5053228;28;20954;-64
2022/04/30 07:23:42;;;;;;;9.40;8.37;;;16.70;57.50;;;;;;5053441;28;20433;-63
2022/04/30 07:26:09;;;;;;;11.13;9.13;;;16.80;55.00;;;;;;5053737;28;20527;-63
2022/04/30 07:28:37;;;;;;;9.10;7.83;;;17.00;54.80;;;;;;5052849;28;20524;-63
2022/04/30 07:31:05;;;;;;;9.23;7.93;;;17.10;53.10;;;;;;5053162;28;20952;-63
2022/04/30 07:33:32;;;;;;;8.53;7.60;;;17.20;53.80;;;;;;5052936;28;20911;-64
2022/04/30 07:35:59;;;;;;;8.57;7.40;;;17.50;54.90;;;;;;5053667;28;20548;-63
2022/04/30 07:38:26;;;;;;;7.63;6.83;;;17.70;54.30;;;;;;5052405;28;20560;-64
2022/04/30 07:40:54;;;;;;;7.87;7.10;;;17.90;53.80;;;;;;5053245;28;20524;-64
2022/04/30 07:43:21;;;;;;;8.30;7.40;;;18.20;53.80;;;;;;5052767;28;20448;-63
2022/04/30 07:45:49;;;;;;;8.40;6.17;;;18.50;53.40;;;;;;5053379;28;20465;-64
2022/04/30 07:48:16;;;;;;;37.60;33.10;;;18.70;52.60;;;;;;5051962;28;20443;-65
2022/04/30 07:50:45;;;;;;;49.10;42.40;;;18.90;52.50;;;;;;5048918;28;20472;-63
2022/04/30 07:53:15;;;;;;;67.20;42.90;;;19.10;51.90;;;;;;5052915;28;20444;-65
2022/04/30 07:55:43;;;;;;;13.20;11.00;;;19.40;51.40;;;;;;5052983;28;20455;-63
2022/04/30 07:58:10;;;;;;;9.50;8.50;;;19.50;49.50;;;;;;5052222;28;20518;-64
2022/04/30 08:00:37;;;;;;;21.87;18.47;;;19.50;48.60;;;;;;5053104;28;20445;-63
2022/04/30 08:03:06;;;;;;;23.23;18.17;;;19.60;47.50;;;;;;5052759;28;20437;-63
2022/04/30 08:05:34;;;;;;;23.90;17.77;;;19.60;47.30;;;;;;5052031;28;20472;-64
2022/04/30 08:08:01;;;;;;;19.10;15.83;;;19.70;45.00;;;;;;5053170;28;20437;-64
2022/04/30 08:10:29;;;;;;;22.00;19.37;;;19.70;42.20;;;;;;5052143;28;20445;-63
2022/04/30 08:12:57;;;;;;;27.27;22.23;;;19.80;41.60;;;;;;5052935;28;20860;-64
2022/04/30 08:15:24;;;;;;;32.00;22.33;;;19.80;41.10;;;;;;5052433;28;20995;-64
2022/04/30 08:17:52;;;;;;;32.07;21.33;;;20.00;41.30;;;;;;5051863;28;20563;-64
2022/04/30 08:20:21;;;;;;;22.87;17.03;;;20.10;39.80;;;;;;5052429;28;20477;-64
2022/04/30 08:22:48;;;;;;;24.30;15.53;;;20.10;39.50;;;;;;5050183;28;20520;-63
2022/04/30 08:25:17;;;;;;;54.50;30.90;;;20.10;39.40;;;;;;5052745;28;20791;-64
2022/04/30 08:27:44;;;;;;;19.97;14.40;;;20.10;39.50;;;;;;5052889;28;20432;-63
2022/04/30 08:30:12;;;;;;;20.37;12.20;;;20.00;39.60;;;;;;5052278;28;20829;-64
2022/04/30 08:32:39;;;;;;;30.70;16.53;;;20.00;39.10;;;;;;5052165;28;20494;-66
2022/04/30 08:35:06;;;;;;;13.33;9.60;;;19.90;40.00;;;;;;5048377;28;20429;-64
2022/04/30 08:37:35;;;;;;;15.27;11.10;;;19.90;39.60;;;;;;5052326;28;20484;-64
2022/04/30 08:40:02;;;;;;;23.27;15.80;;;19.70;39.40;;;;;;5052272;28;20447;-64
2022/04/30 08:42:32;;;;;;;9.57;8.50;;;19.70;40.00;;;;;;5051773;28;20472;-64
2022/04/30 08:44:59;;;;;;;24.10;18.37;;;19.70;40.40;;;;;;5052410;28;20433;-63
2022/04/30 08:47:27;;;;;;;20.40;15.83;;;19.70;40.10;;;;;;5052151;28;20836;-64
2022/04/30 08:49:56;;;;;;;20.80;17.83;;;19.60;39.70;;;;;;5051648;28;20994;-63
2022/04/30 08:52:24;;;;;;;14.70;12.53;;;19.50;40.40;;;;;;5049683;28;20520;-64
2022/04/30 08:54:52;;;;;;;8.07;6.47;;;19.50;40.50;;;;;;5052351;28;20444;-63
2022/04/30 08:57:20;;;;;;;15.23;13.30;;;19.40;40.60;;;;;;5051956;28;20441;-64
2022/04/30 08:59:47;;;;;;;9.63;8.30;;;19.50;40.80;;;;;;5051612;28;20509;-64
2022/04/30 09:02:14;;;;;;;10.60;7.73;;;19.50;40.40;;;;;;5052013;28;20524;-63
2022/04/30 09:04:44;;;;;;;8.63;7.57;;;19.60;40.70;;;;;;5052020;28;20528;-63
2022/04/30 09:07:15;;;;;;;8.80;7.90;;;19.60;39.70;;;;;;5051356;28;20433;-63
2022/04/30 09:09:46;;;;;;;13.07;9.73;;;19.60;40.20;;;;;;5051781;28;20464;-64
2022/04/30 09:12:16;;;;;;;10.87;8.93;;;19.60;41.20;;;;;;5051785;28;20491;-63
2022/04/30 09:14:43;;;;;;;32.37;18.77;;;19.90;41.90;;;;;;5051193;28;20440;-68
2022/04/30 09:17:12;;;;;;;13.57;10.30;;;20.00;40.60;;;;;;5051669;28;20943;-63
2022/04/30 09:19:50;;;;;;;22.43;14.17;;;20.10;40.30;;;;;;5051657;28;20477;-63
2022/04/30 09:22:28;;;;;;;14.77;9.60;;;20.20;39.60;;;;;;5051233;28;20523;-63
2022/04/30 09:24:56;;;;;;;29.03;18.50;;;20.10;39.50;;;;;;5051729;28;20441;-64
2022/04/30 09:27:24;;;;;;;15.33;10.50;;;20.00;39.00;;;;;;5050725;28;20866;-64
2022/04/30 09:29:52;;;;;;;15.50;10.50;;;19.80;39.00;;;;;;5051524;28;20437;-63
2022/04/30 09:32:20;;;;;;;12.27;9.90;;;19.60;39.20;;;;;;5051447;28;21393;-63
2022/04/30 09:37:43;;;;;;;11.47;9.27;;;19.20;41.50;;;;;;5051136;28;20412;-64
2022/04/30 09:40:24;;;;;;;9.23;8.27;;;19.00;42.60;;;;;;5049469;28;20447;-65
2022/04/30 09:42:52;;;;;;;10.13;7.93;;;18.80;43.10;;;;;;5049852;28;20445;-63
2022/04/30 09:45:25;;;;;;;6.60;5.87;;;18.50;44.00;;;;;;5049199;28;20809;-63
2022/04/30 09:47:53;;;;;;;9.13;8.13;;;18.20;44.10;;;;;;5049894;28;20537;-63
2022/04/30 09:55:54;;;;;;;9.10;6.70;;;17.70;45.50;;;;;;5049162;28;20424;-65
2022/04/30 09:58:28;;;;;;;5.80;5.30;;;17.50;46.00;;;;;;5049741;28;20568;-64
2022/04/30 10:00:57;;;;;;;8.97;7.70;;;17.40;46.50;;;;;;5049404;28;20428;-64
2022/04/30 10:03:29;;;;;;;10.60;8.27;;;17.30;46.80;;;;;;5049125;28;20530;-63
2022/04/30 10:06:01;;;;;;;7.27;5.90;;;17.20;47.10;;;;;;5050677;28;20961;-63
2022/04/30 10:08:30;;;;;;;9.80;7.70;;;17.10;48.00;;;;;;5047237;28;20482;-63
2022/04/30 10:11:10;;;;;;;10.37;7.17;;;17.00;48.60;;;;;;5050972;28;20510;-64
2022/04/30 10:13:49;;;;;;;11.07;8.37;;;16.80;48.90;;;;;;5044755;28;20453;-63
2022/04/30 10:16:25;;;;;;;8.73;6.33;;;16.80;49.00;;;;;;5050904;28;20431;-67
2022/04/30 10:19:10;;;;;;;9.90;6.57;;;16.70;49.50;;;;;;5049911;28;20875;-63
2022/04/30 10:21:38;;;;;;;10.60;9.10;;;16.50;49.70;;;;;;5050313;28;20448;-63
2022/04/30 10:24:07;;;;;;;6.97;6.27;;;16.40;50.00;;;;;;5051003;28;20437;-63
2022/04/30 10:26:34;;;;;;;7.10;6.20;;;16.30;50.40;;;;;;5050375;28;20481;-65
2022/04/30 10:29:11;;;;;;;12.90;6.70;;;16.30;50.80;;;;;;5049912;28;20860;-64
2022/04/30 10:31:48;;;;;;;7.70;6.90;;;16.20;51.40;;;;;;5047967;28;20468;-63
2022/04/30 10:34:15;;;;;;;8.60;7.80;;;16.10;52.80;;;;;;5053276;28;20515;-64
2022/04/30 10:36:41;;;;;;;11.10;9.37;;;16.00;53.30;;;;;;5052719;28;20447;-63
2022/04/30 10:39:19;;;;;;;11.00;8.93;;;15.80;55.60;;;;;;5053912;28;21171;-63
2022/04/30 10:41:50;;;;;;;8.83;7.93;;;15.80;55.60;;;;;;5053256;28;20519;-63
2022/04/30 10:44:28;;;;;;;10.57;8.03;;;15.70;56.40;;;;;;5053459;28;21063;-63
2022/04/30 10:46:55;;;;;;;10.97;7.40;;;15.60;56.50;;;;;;5050836;28;20547;-63
2022/04/30 10:49:22;;;;;;;9.30;7.70;;;15.60;57.20;;;;;;5054192;28;20516;-63
2022/04/30 10:51:55;;;;;;;10.03;7.17;;;15.50;58.30;;;;;;5054924;28;20792;-63
2022/04/30 10:54:23;;;;;;;9.50;8.50;;;15.50;58.80;;;;;;5054535;28;20436;-63
2022/04/30 10:56:59;;;;;;;10.70;9.00;;;15.50;59.60;;;;;;5054405;28;20455;-64
2022/04/30 10:59:27;;;;;;;9.23;7.70;;;15.40;60.50;;;;;;5053058;28;20858;-64
2022/04/30 11:01:54;;;;;;;9.87;8.90;;;15.40;61.10;;;;;;5054224;28;20437;-64
2022/04/30 11:04:22;;;;;;;10.57;8.60;;;15.40;60.80;;;;;;5052621;28;20773;-64
2022/04/30 11:06:51;;;;;;;9.43;8.50;;;15.40;61.40;;;;;;5054152;28;20456;-63
2022/04/30 11:09:19;;;;;;;13.20;8.70;;;15.50;62.40;;;;;;5050338;28;20974;-63
2022/04/30 11:11:48;;;;;;;9.40;8.00;;;15.50;62.60;;;;;;5053754;28;20816;-65
2022/04/30 11:14:16;;;;;;;10.60;8.27;;;15.50;63.60;;;;;;5053175;28;20440;-63
2022/04/30 11:16:45;;;;;;;9.67;8.67;;;15.60;63.70;;;;;;5053232;28;20951;-63
2022/04/30 11:19:13;;;;;;;9.63;8.63;;;15.60;63.40;;;;;;5051992;28;20476;-63
2022/04/30 11:21:42;;;;;;;7.53;6.73;;;15.60;63.30;;;;;;5053101;28;20531;-64
2022/04/30 11:24:10;;;;;;;13.23;8.17;;;15.60;63.10;;;;;;5052812;28;20440;-63
2022/04/30 11:26:38;;;;;;;11.17;7.73;;;15.50;62.20;;;;;;5047593;28;20511;-63
2022/04/30 11:29:09;;;;;;;12.10;7.47;;;15.40;62.60;;;;;;5053216;28;20977;-63
2022/04/30 11:31:35;;;;;;;8.10;7.30;;;15.40;62.80;;;;;;5053800;28;20436;-65
2022/04/30 11:34:10;;;;;;;8.00;7.30;;;15.30;63.00;;;;;;5053860;28;20435;-63
2022/04/30 11:36:42;;;;;;;10.20;7.97;;;15.20;63.00;;;;;;5053145;28;20523;-63
2022/04/30 11:39:10;;;;;;;8.47;7.00;;;15.10;63.00;;;;;;5053342;28;20488;-63
2022/04/30 11:41:40;;;;;;;7.87;6.83;;;15.10;63.60;;;;;;5053045;28;20762;-63
2022/04/30 11:44:10;;;;;;;9.77;7.80;;;15.00;63.80;;;;;;5052628;28;20438;-63
2022/04/30 11:46:37;;;;;;;9.07;7.40;;;15.00;65.80;;;;;;5050969;28;21997;-64
2022/04/30 11:49:10;;;;;;;8.70;7.10;;;15.00;66.00;;;;;;5049815;28;20444;-63
2022/04/30 11:51:37;;;;;;;10.60;8.60;;;15.00;65.80;;;;;;5052514;28;20507;-63
2022/04/30 11:54:07;;;;;;;8.77;6.73;;;15.00;65.80;;;;;;5053306;28;20437;-64
2022/04/30 11:56:35;;;;;;;8.40;7.53;;;15.00;66.00;;;;;;5052095;28;20440;-63
2022/04/30 11:59:02;;;;;;;7.40;6.27;;;15.00;67.00;;;;;;5052264;28;21021;-63
2022/04/30 12:01:31;;;;;;;6.47;5.80;;;15.10;66.20;;;;;;5053578;28;20852;-63
2022/04/30 12:04:01;;;;;;;7.73;6.40;;;15.10;66.40;;;;;;5051854;28;20441;-64
2022/04/30 12:06:29;;;;;;;7.13;6.40;;;15.20;67.30;;;;;;5053322;28;20476;-63
2022/04/30 12:08:57;;;;;;;7.60;6.80;;;15.30;68.20;;;;;;5052884;28;20865;-65
2022/04/30 12:11:24;;;;;;;9.47;6.67;;;15.40;68.10;;;;;;5052453;28;20437;-64
2022/04/30 12:14:02;;;;;;;7.23;6.03;;;15.40;68.30;;;;;;5051752;28;20437;-64
2022/04/30 12:16:37;;;;;;;7.77;6.77;;;15.50;66.40;;;;;;5053340;28;20439;-64
2022/04/30 12:24:43;;;;;;;8.87;6.63;;;15.50;65.30;;;;;;5051331;28;20439;-64
2022/04/30 12:27:11;;;;;;;8.43;6.40;;;15.40;63.90;;;;;;5052693;28;20435;-63
2022/04/30 12:29:38;;;;;;;8.93;7.90;;;15.50;64.30;;;;;;5052091;28;20960;-63
2022/04/30 12:32:07;;;;;;;9.03;7.40;;;15.60;64.30;;;;;;5051021;28;20442;-63
2022/04/30 12:34:39;;;;;;;8.30;7.20;;;15.60;62.20;;;;;;5048001;28;20441;-63
2022/04/30 12:37:08;;;;;;;6.80;6.10;;;15.60;62.40;;;;;;5052800;28;21054;-63
2022/04/30 12:39:37;;;;;;;7.30;6.27;;;15.60;62.00;;;;;;5051146;28;20487;-64
2022/04/30 12:42:08;;;;;;;7.37;5.97;;;15.50;61.30;;;;;;5046958;28;20915;-63
2022/04/30 12:44:35;;;;;;;7.70;6.83;;;15.50;61.90;;;;;;5050641;28;20433;-63
2022/04/30 12:47:02;;;;;;;8.57;5.83;;;15.50;62.30;;;;;;5051784;28;20456;-64
2022/04/30 12:49:29;;;;;;;7.87;7.07;;;15.50;59.50;;;;;;5051442;28;20448;-63
2022/04/30 12:51:56;;;;;;;6.83;5.60;;;15.50;59.50;;;;;;5052136;28;20539;-64
2022/04/30 12:54:25;;;;;;;7.40;5.67;;;15.40;56.40;;;;;;5050959;28;20528;-64
2022/04/30 12:56:52;;;;;;;7.70;6.77;;;15.30;56.70;;;;;;5050459;28;20531;-66
2022/04/30 12:59:19;;;;;;;10.87;5.20;;;15.30;56.50;;;;;;5051011;28;20910;-63
2022/04/30 13:01:46;;;;;;;6.60;5.93;;;15.30;57.50;;;;;;5049957;28;20931;-64
2022/04/30 13:04:14;;;;;;;6.33;5.63;;;15.20;57.60;;;;;;5049469;28;20796;-63
2022/04/30 13:06:41;;;;;;;8.57;7.00;;;15.20;58.00;;;;;;5050846;28;20997;-63
2022/04/30 13:14:38;;;;;;;7.13;6.33;;;15.10;56.70;;;;;;5047527;28;20433;-64
2022/04/30 13:17:05;;;;;;;7.27;6.57;;;15.20;58.70;;;;;;5043082;28;20524;-64
2022/04/30 13:19:32;;;;;;;6.63;5.97;;;15.30;57.50;;;;;;5050006;28;20508;-63
2022/04/30 13:22:01;;;;;;;6.07;4.80;;;15.30;57.10;;;;;;5046383;28;20527;-63
2022/04/30 13:24:29;;;;;;;6.70;6.00;;;15.40;55.90;;;;;;5043505;28;21019;-63
2022/04/30 13:26:58;;;;;;;5.90;5.03;;;15.40;56.70;;;;;;5050565;28;20445;-63
2022/04/30 13:29:25;;;;;;;6.30;5.50;;;15.50;56.40;;;;;;5050081;28;20467;-64
2022/04/30 13:31:52;;;;;;;6.00;5.30;;;15.50;56.90;;;;;;5049308;28;20441;-64
2022/04/30 13:34:21;;;;;;;5.80;4.83;;;15.50;57.40;;;;;;5050591;28;20446;-64